LOWL/LNZ METAR and TAF weather

Enter ICAO airport designator
Station Type Date Time Source
LOWL METAR 2019/10/23 02:20 UTC NOAA

LOWL 230220Z AUTO VRB01KT 2400 BR FEW001 BKN002 12/12 Q1021


Station Type Date Time Source
LOWL Decoded METAR 2019/10/23 02:20 UTC NOAA

Linz / Hoersching-Flughafen, Austria (LOWL) 48-14N 014-11E 313M
Oct 22, 2019 - 10:20 PM EDT / 2019.10.23 0220 UTC
Wind: Variable at 1 MPH (1 KT):0
Visibility: 1 mile(s):0
Sky conditions: mostly cloudy
Weather: mist
Temperature: 53 F (12 C)
Dew Point: 53 F (12 C)
Relative Humidity: 100%
Pressure (altimeter): 30.15 in. Hg (1021 hPa)
ob: LOWL 230220Z AUTO VRB01KT 2400 BR FEW001 BKN002 12/12 Q1021
cycle: 2

Station Type Date Time Source
LOWL TAF 2019/10/23 01:20 UTC NOAA

TAF
AMD LOWL 230113Z 2301/2324 VRB02KT 1500 BCFG FEW001 BKN002 TX14/2313Z TN09/2324Z
TEMPO 2301/2307 0100 FG VV001
BECMG 2307/2309 08006KT 2000 BR OVC004
BECMG 2309/2311 5000 BR SCT004 BKN007 PROB40 2312/2318 10010KT 8000 NSW FEW010
BECMG 2318/2321 2500 BR BKN005
BECMG 2321/2324 0300 FG VV002

Example: see airport list